createdAt,value
2022-12-23T00:02:23.282Z,98869.06
2022-12-23T00:05:24.869Z,98875.81
2022-12-23T00:08:26.930Z,98870.41
2022-12-23T00:11:29.025Z,98863.16
2022-12-23T00:14:49.004Z,98871.75
2022-12-23T00:17:50.493Z,98874.00
2022-12-23T00:21:00.158Z,98878.19
2022-12-23T00:24:05.088Z,98878.09
2022-12-23T00:27:06.630Z,98890.78
2022-12-23T00:30:10.249Z,98876.00
2022-12-23T00:33:11.920Z,98880.00
2022-12-23T00:36:16.817Z,98873.22
2022-12-23T00:39:36.905Z,98882.63
2022-12-23T00:42:53.298Z,98883.53
2022-12-23T00:45:55.013Z,98879.09
2022-12-23T00:49:15.226Z,98883.25
2022-12-23T00:52:16.757Z,98891.03
2022-12-23T00:55:18.274Z,98897.75
2022-12-23T00:58:21.207Z,98888.78
2022-12-23T01:01:41.357Z,98899.53
2022-12-23T01:05:01.670Z,98898.66
2022-12-23T01:08:10.746Z,98897.84
2022-12-23T01:11:12.692Z,98918.44
2022-12-23T01:14:14.219Z,98900.81
2022-12-23T01:17:15.887Z,98914.84
2022-12-23T01:20:17.440Z,98919.66
2022-12-23T01:23:18.876Z,98912.78
2022-12-23T01:26:20.479Z,98922.00
2022-12-23T01:29:21.934Z,98925.59
2022-12-23T01:32:23.362Z,98922.81
2022-12-23T01:35:24.781Z,98934.44
2022-12-23T01:38:26.250Z,98942.00
2022-12-23T01:41:48.740Z,98943.97
2022-12-23T01:44:54.765Z,98946.25
2022-12-23T01:48:09.997Z,98948.69
2022-12-23T01:51:19.491Z,98950.16
2022-12-23T01:54:20.958Z,98957.19
2022-12-23T01:57:23.376Z,98960.47
2022-12-23T02:00:43.473Z,98974.56
2022-12-23T02:03:46.614Z,98986.78
2022-12-23T02:07:09.204Z,98987.50
2022-12-23T02:10:11.226Z,98986.44
2022-12-23T02:13:39.409Z,98982.63
2022-12-23T02:16:51.064Z,98992.31
2022-12-23T02:20:28.175Z,98997.19
2022-12-23T02:23:41.626Z,99004.59
2022-12-23T02:26:54.909Z,99014.34
2022-12-23T02:29:56.342Z,99009.44
2022-12-23T02:33:35.548Z,99016.19
2022-12-23T02:37:04.376Z,99017.06
2022-12-23T02:40:20.360Z,99019.53
2022-12-23T02:43:45.504Z,99026.47
2022-12-23T02:46:51.246Z,99025.84
2022-12-23T02:49:59.287Z,99029.25
2022-12-23T02:53:08.684Z,99038.16
2022-12-23T02:56:12.790Z,99033.88
2022-12-23T02:59:39.041Z,99041.84
2022-12-23T03:02:42.236Z,99054.41
2022-12-23T03:05:47.568Z,99050.00
2022-12-23T03:08:52.214Z,99052.91
2022-12-23T03:12:17.251Z,99050.34
2022-12-23T03:15:36.528Z,99066.91
2022-12-23T03:19:06.158Z,99056.97
2022-12-23T03:22:31.049Z,99059.78
2022-12-23T03:26:04.259Z,99052.97
2022-12-23T03:29:18.521Z,99053.44
2022-12-23T03:32:22.149Z,99069.38
2022-12-23T03:35:29.945Z,99063.91
2022-12-23T03:38:35.044Z,99052.59
2022-12-23T03:41:42.289Z,99048.09
2022-12-23T03:45:10.748Z,99065.34
2022-12-23T03:48:19.476Z,99066.72
2022-12-23T03:51:26.077Z,99087.38
2022-12-23T03:54:33.450Z,99077.69
2022-12-23T03:57:44.893Z,99083.69
2022-12-23T04:01:00.497Z,99076.69
2022-12-23T04:04:06.748Z,99067.28
2022-12-23T04:07:17.359Z,99076.75
2022-12-23T04:10:21.262Z,99087.25
2022-12-23T04:13:22.733Z,99085.66
2022-12-23T04:16:24.531Z,99096.53
2022-12-23T04:19:26.076Z,99104.09
2022-12-23T04:22:27.518Z,99090.38
2022-12-23T04:25:28.996Z,99099.97
2022-12-23T04:28:30.391Z,99089.53
2022-12-23T04:31:32.004Z,99100.75
2022-12-23T04:34:33.510Z,99097.22
2022-12-23T04:37:35.022Z,99094.59
2022-12-23T04:40:36.589Z,99094.75
2022-12-23T04:43:38.056Z,99105.09
2022-12-23T04:46:39.553Z,99102.63
2022-12-23T04:49:41.446Z,99094.44
2022-12-23T04:52:43.786Z,99095.72
2022-12-23T04:55:49.301Z,99103.88
2022-12-23T04:58:50.763Z,99094.47
2022-12-23T05:01:52.363Z,99086.94
2022-12-23T05:04:53.927Z,99091.78
2022-12-23T05:08:03.109Z,99101.03
2022-12-23T05:11:04.684Z,99091.97
2022-12-23T05:14:23.319Z,99098.13
2022-12-23T05:17:27.574Z,99089.00
2022-12-23T05:20:29.013Z,99088.28
2022-12-23T05:23:32.574Z,99090.44
2022-12-23T05:26:34.060Z,99104.50
2022-12-23T05:29:35.655Z,99100.06
2022-12-23T05:32:37.090Z,99097.66
2022-12-23T05:35:38.509Z,99113.34
2022-12-23T05:38:39.900Z,99104.25
2022-12-23T05:41:41.301Z,99106.13
2022-12-23T05:44:45.022Z,99113.59
2022-12-23T05:47:46.594Z,99113.81
2022-12-23T05:50:50.995Z,99113.47
2022-12-23T05:53:52.463Z,99118.28
2022-12-23T05:56:53.865Z,99113.72
2022-12-23T05:59:55.312Z,99113.78
2022-12-23T06:02:56.883Z,99108.81
2022-12-23T06:05:58.603Z,99109.50
2022-12-23T06:09:00.501Z,99105.91
2022-12-23T06:12:02.080Z,99107.19
2022-12-23T06:15:06.457Z,99107.19
2022-12-23T06:18:07.952Z,99101.34
2022-12-23T06:21:09.433Z,99099.25
2022-12-23T06:24:11.163Z,99099.19
2022-12-23T06:27:12.673Z,99103.03
2022-12-23T06:30:14.567Z,99102.16
2022-12-23T06:33:16.054Z,99095.28
2022-12-23T06:36:17.535Z,99107.78
2022-12-23T06:39:18.981Z,99116.97
2022-12-23T06:42:20.493Z,99115.69
2022-12-23T06:45:22.067Z,99109.44
2022-12-23T06:48:23.536Z,99118.28
2022-12-23T06:51:25.029Z,99119.78
2022-12-23T06:54:26.446Z,99122.56
2022-12-23T06:57:27.891Z,99115.22
2022-12-23T07:00:29.404Z,99122.03
2022-12-23T07:03:41.585Z,99126.78
2022-12-23T07:06:46.121Z,99117.69
2022-12-23T07:09:47.703Z,99115.91
2022-12-23T07:12:51.052Z,99113.66
2022-12-23T07:15:53.133Z,99129.34
2022-12-23T07:18:54.636Z,99131.06
2022-12-23T07:21:56.081Z,99136.25
2022-12-23T07:24:57.497Z,99146.94
2022-12-23T07:27:58.925Z,99137.91
2022-12-23T07:31:00.391Z,99148.75
2022-12-23T07:34:02.099Z,99152.97
2022-12-23T07:37:03.642Z,99155.34
2022-12-23T07:40:08.762Z,99154.75
2022-12-23T07:43:13.844Z,99157.19
2022-12-23T07:46:15.382Z,99153.13
2022-12-23T07:49:17.045Z,99149.28
2022-12-23T07:52:18.548Z,99145.78
2022-12-23T07:55:20.779Z,99145.66
2022-12-23T07:58:22.296Z,99147.28
2022-12-23T08:01:23.823Z,99144.66
2022-12-23T08:04:25.279Z,99140.69
2022-12-23T08:07:26.735Z,99149.56
2022-12-23T08:10:28.595Z,99152.88
2022-12-23T08:13:31.718Z,99133.53
2022-12-23T08:16:37.846Z,99137.53
2022-12-23T08:19:42.956Z,99120.59
2022-12-23T08:22:44.456Z,99121.63
2022-12-23T08:25:45.930Z,99120.34
2022-12-23T08:28:48.556Z,99113.28
2022-12-23T08:31:50.476Z,99116.41
2022-12-23T08:34:51.930Z,99115.03
2022-12-23T08:37:53.448Z,99127.88
2022-12-23T08:40:54.864Z,99134.16
2022-12-23T08:43:56.430Z,99141.84
2022-12-23T08:46:57.887Z,99143.72
2022-12-23T08:49:59.317Z,99143.25
2022-12-23T08:53:00.771Z,99150.84
2022-12-23T08:56:05.831Z,99154.63
2022-12-23T08:59:19.063Z,99166.28
2022-12-23T09:02:20.987Z,99161.50
2022-12-23T09:05:22.643Z,99161.28
2022-12-23T09:08:24.114Z,99144.19
2022-12-23T09:11:27.328Z,99137.72
2022-12-23T09:14:29.011Z,99138.19
2022-12-23T09:17:30.498Z,99131.88
2022-12-23T09:20:32.089Z,99132.53
2022-12-23T09:23:34.635Z,99128.28
2022-12-23T09:26:36.139Z,99132.13
2022-12-23T09:29:37.593Z,99143.53
2022-12-23T09:32:39.044Z,99144.88
2022-12-23T09:35:40.491Z,99153.34
2022-12-23T09:38:42.184Z,99153.94
2022-12-23T09:42:04.582Z,99148.44
2022-12-23T09:45:43.821Z,99148.38
2022-12-23T09:49:12.262Z,99145.25
2022-12-23T09:52:21.211Z,99132.03
2022-12-23T09:55:31.665Z,99126.81
2022-12-23T09:58:42.730Z,99126.78
2022-12-23T10:02:23.367Z,99120.44
2022-12-23T10:05:46.799Z,99117.06
2022-12-23T10:08:52.982Z,99109.31
2022-12-23T10:11:54.710Z,99105.44
2022-12-23T10:14:58.807Z,99101.75
2022-12-23T10:18:12.077Z,99103.38
2022-12-23T10:21:31.705Z,99087.19
2022-12-23T10:24:40.746Z,99094.59
2022-12-23T10:27:43.981Z,99075.75
2022-12-23T10:34:39.871Z,99066.59
2022-12-23T10:37:55.516Z,99061.25
2022-12-23T10:41:11.627Z,99044.84
2022-12-23T10:44:39.878Z,99048.13
2022-12-23T10:48:24.975Z,99039.56
2022-12-23T10:51:37.411Z,99040.44
2022-12-23T10:54:39.345Z,99028.88
2022-12-23T10:57:40.863Z,99032.94
2022-12-23T11:00:46.562Z,99021.94
2022-12-23T11:04:08.756Z,99014.19
2022-12-23T11:07:43.331Z,99005.22
2022-12-23T11:10:40.064Z,99013.44
2022-12-23T11:13:45.232Z,99009.44
2022-12-23T11:16:46.945Z,99011.00
2022-12-23T11:20:11.543Z,99003.09
2022-12-23T11:23:31.200Z,98997.84
2022-12-23T11:26:32.865Z,98985.09
2022-12-23T11:29:38.233Z,99004.13
2022-12-23T11:32:42.483Z,98994.91
2022-12-23T11:35:44.722Z,98994.25
2022-12-23T11:38:52.965Z,98983.41
2022-12-23T11:42:04.828Z,98985.16
2022-12-23T11:45:06.991Z,98988.63
2022-12-23T11:48:30.413Z,98977.50
2022-12-23T11:51:31.969Z,98974.31
2022-12-23T11:54:34.095Z,98967.34
2022-12-23T11:57:43.052Z,98969.06
2022-12-23T12:00:55.851Z,98972.41
2022-12-23T12:04:03.142Z,98967.22
2022-12-23T12:07:06.727Z,98961.00
2022-12-23T12:10:18.200Z,98950.75
2022-12-23T12:13:30.787Z,98927.56
2022-12-23T12:16:51.663Z,98938.09
2022-12-23T12:20:04.780Z,98929.91
2022-12-23T12:23:12.759Z,98932.63
2022-12-23T12:26:30.628Z,98924.19
2022-12-23T12:29:39.282Z,98909.81
2022-12-23T12:32:55.356Z,98912.25
2022-12-23T12:36:15.653Z,98898.03
2022-12-23T12:39:28.649Z,98895.09
2022-12-23T12:42:40.173Z,98889.03
2022-12-23T12:45:50.156Z,98875.25
2022-12-23T12:48:57.684Z,98879.53
2022-12-23T12:52:22.235Z,98873.25
2022-12-23T12:55:29.149Z,98865.13
2022-12-23T12:58:31.102Z,98862.75
2022-12-23T13:01:52.758Z,98856.06
2022-12-23T13:05:09.148Z,98863.38
2022-12-23T13:08:35.571Z,98872.72
2022-12-23T13:11:45.324Z,98876.00
2022-12-23T13:15:08.441Z,98872.09
2022-12-23T13:18:15.967Z,98856.94
2022-12-23T13:21:26.208Z,98857.56
2022-12-23T13:24:52.290Z,98866.25
2022-12-23T13:27:53.997Z,98858.94
2022-12-23T13:31:03.908Z,98847.53
2022-12-23T13:34:27.234Z,98842.88
2022-12-23T13:37:37.521Z,98837.69
2022-12-23T13:40:57.692Z,98833.16
2022-12-23T13:44:10.655Z,98844.88
2022-12-23T13:47:19.106Z,98852.66
2022-12-23T13:50:36.491Z,98845.63
2022-12-23T13:54:15.470Z,98856.28
2022-12-23T13:57:35.471Z,98864.53
2022-12-23T14:00:37.063Z,98864.25
2022-12-23T14:03:39.460Z,98874.06
2022-12-23T14:06:42.920Z,98867.31
2022-12-23T14:09:56.496Z,98880.84
2022-12-23T14:13:08.394Z,98874.41
2022-12-23T14:16:18.910Z,98890.28
2022-12-23T14:19:50.727Z,98890.09
2022-12-23T14:23:21.436Z,98904.56
2022-12-23T14:26:30.050Z,98906.13
2022-12-23T14:29:34.770Z,98896.09
2022-12-23T14:32:45.735Z,98915.06
2022-12-23T14:35:47.169Z,98916.16
2022-12-23T14:39:11.775Z,98925.63
2022-12-23T14:42:32.559Z,98919.63
2022-12-23T14:45:41.617Z,98913.56
2022-12-23T14:48:44.187Z,98901.06
2022-12-23T14:51:45.780Z,98905.56
2022-12-23T14:55:06.360Z,98902.50
2022-12-23T14:58:17.947Z,98903.00
2022-12-23T15:01:25.499Z,98901.69
2022-12-23T15:04:54.759Z,98914.78
2022-12-23T15:07:56.852Z,98920.72
2022-12-23T15:10:59.225Z,98922.84
2022-12-23T15:14:03.081Z,98925.84
2022-12-23T15:17:26.356Z,98926.16
2022-12-23T15:20:28.197Z,98929.25
2022-12-23T15:23:30.065Z,98927.72
2022-12-23T15:26:32.920Z,98926.03
2022-12-23T15:29:34.502Z,98920.00
2022-12-23T15:32:38.099Z,98935.28
2022-12-23T15:35:40.119Z,98920.16
2022-12-23T15:38:41.971Z,98917.97
2022-12-23T15:41:45.173Z,98925.28
2022-12-23T15:44:46.642Z,98927.16
2022-12-23T15:47:48.499Z,98924.69
2022-12-23T15:50:52.700Z,98920.50
2022-12-23T15:53:56.762Z,98919.63
2022-12-23T15:57:00.794Z,98914.44
2022-12-23T16:00:02.745Z,98909.38
2022-12-23T16:03:35.143Z,98905.97
2022-12-23T16:06:37.251Z,98917.63
2022-12-23T16:09:38.782Z,98916.63
2022-12-23T16:12:41.079Z,98927.81
2022-12-23T16:15:43.004Z,98928.13
2022-12-23T16:18:47.639Z,98926.53
2022-12-23T16:21:49.586Z,98930.91
2022-12-23T16:25:16.020Z,98918.28
2022-12-23T16:28:29.825Z,98916.00
2022-12-23T16:31:31.424Z,98919.25
2022-12-23T16:34:32.994Z,98919.34
2022-12-23T16:37:34.422Z,98920.38
2022-12-23T16:40:35.951Z,98928.38
2022-12-23T16:43:37.617Z,98917.44
2022-12-23T16:46:43.450Z,98923.00
2022-12-23T16:49:45.006Z,98929.84
2022-12-23T16:52:46.450Z,98928.34
2022-12-23T16:55:53.785Z,98922.53
2022-12-23T16:58:59.917Z,98919.31
2022-12-23T17:02:03.827Z,98914.69
2022-12-23T17:05:10.195Z,98921.38
2022-12-23T17:08:11.815Z,98929.56
2022-12-23T17:11:19.330Z,98927.38
2022-12-23T17:14:23.442Z,98931.16
2022-12-23T17:17:25.879Z,98934.97
2022-12-23T17:20:27.352Z,98930.13
2022-12-23T17:23:31.118Z,98945.06
2022-12-23T17:26:32.624Z,98953.44
2022-12-23T17:29:34.117Z,98952.56
2022-12-23T17:32:35.724Z,98945.22
2022-12-23T17:35:37.332Z,98935.84
2022-12-23T17:38:38.817Z,98950.94
2022-12-23T17:41:41.105Z,98961.97
2022-12-23T17:44:42.633Z,98970.78
2022-12-23T17:47:44.191Z,98976.03
2022-12-23T17:50:46.387Z,98999.13
2022-12-23T17:53:55.167Z,99001.75
2022-12-23T17:56:58.865Z,98986.84
2022-12-23T18:00:00.367Z,98964.56
2022-12-23T18:03:05.646Z,98979.00
2022-12-23T18:06:11.809Z,98979.22
2022-12-23T18:09:13.305Z,98990.63
2022-12-23T18:12:37.415Z,99008.78
2022-12-23T18:15:41.332Z,99010.59
2022-12-23T18:18:46.733Z,99033.28
2022-12-23T18:21:50.076Z,99040.41
2022-12-23T18:24:56.963Z,99014.47
2022-12-23T18:28:00.281Z,99027.63
2022-12-23T18:31:01.903Z,99018.03
2022-12-23T18:34:03.839Z,99007.53
2022-12-23T18:37:05.637Z,99020.06
2022-12-23T18:40:07.857Z,99018.69
2022-12-23T18:43:18.160Z,99038.97
2022-12-23T18:46:20.404Z,99041.44
2022-12-23T18:49:22.002Z,99035.19
2022-12-23T18:52:23.924Z,99035.16
2022-12-23T18:55:26.999Z,99045.50
2022-12-23T18:58:28.467Z,99043.91
2022-12-23T19:01:29.942Z,99052.31
2022-12-23T19:04:31.410Z,99073.78
2022-12-23T19:07:33.887Z,99075.34
2022-12-23T19:10:35.582Z,99084.75
2022-12-23T19:13:37.312Z,99093.19
2022-12-23T19:16:39.381Z,99094.63
2022-12-23T19:19:41.311Z,99098.41
2022-12-23T19:22:43.408Z,99112.81
2022-12-23T19:25:52.702Z,99115.47
2022-12-23T19:28:56.605Z,99120.81
2022-12-23T19:31:58.039Z,99133.78
2022-12-23T19:34:59.528Z,99145.81
2022-12-23T19:38:00.954Z,99134.69
2022-12-23T19:41:02.393Z,99140.03
2022-12-23T19:44:03.987Z,99146.00
2022-12-23T19:47:05.553Z,99153.63
2022-12-23T19:50:07.874Z,99155.72
2022-12-23T19:53:09.241Z,99153.53
2022-12-23T19:56:13.538Z,99165.03
2022-12-23T19:59:15.145Z,99175.38
2022-12-23T20:02:17.606Z,99165.47
2022-12-23T20:05:19.145Z,99184.03
2022-12-23T20:08:20.618Z,99165.03
2022-12-23T20:11:26.022Z,99182.56
2022-12-23T20:14:32.063Z,99179.00
2022-12-23T20:17:35.468Z,99190.56
2022-12-23T20:20:38.399Z,99206.84
2022-12-23T20:23:39.943Z,99207.94
2022-12-23T20:26:42.242Z,99221.59
2022-12-23T20:29:43.759Z,99238.91
2022-12-23T20:32:45.231Z,99234.09
2022-12-23T20:35:46.671Z,99239.81
2022-12-23T20:38:48.410Z,99244.59
2022-12-23T20:41:49.853Z,99237.69
2022-12-23T20:44:51.720Z,99243.78
2022-12-23T20:47:54.377Z,99248.66
2022-12-23T20:50:56.000Z,99252.50
2022-12-23T20:54:00.889Z,99253.75
2022-12-23T20:57:09.033Z,99254.31
2022-12-23T21:00:12.242Z,99243.69
2022-12-23T21:03:13.970Z,99241.97
2022-12-23T21:06:15.699Z,99244.06
2022-12-23T21:09:17.424Z,99251.34
2022-12-23T21:12:18.948Z,99262.09
2022-12-23T21:15:22.674Z,99267.09
2022-12-23T21:18:24.169Z,99271.63
2022-12-23T21:21:27.351Z,99285.88
2022-12-23T21:24:28.916Z,99300.97
2022-12-23T21:27:30.326Z,99307.19
2022-12-23T21:30:33.186Z,99313.75
2022-12-23T21:33:39.702Z,99306.84
2022-12-23T21:36:42.213Z,99297.66
2022-12-23T21:39:43.722Z,99302.09
2022-12-23T21:42:45.372Z,99307.69
2022-12-23T21:45:56.072Z,99297.84
2022-12-23T21:48:58.551Z,99304.69
2022-12-23T21:52:00.033Z,99302.88
2022-12-23T21:55:01.440Z,99321.69
2022-12-23T21:58:02.926Z,99325.63
2022-12-23T22:01:19.136Z,99328.59
2022-12-23T22:04:20.768Z,99337.72
2022-12-23T22:07:22.297Z,99345.91
2022-12-23T22:10:23.812Z,99350.13
2022-12-23T22:13:26.464Z,99353.00
2022-12-23T22:16:29.911Z,99352.63
2022-12-23T22:19:31.444Z,99350.56
2022-12-23T22:22:32.982Z,99367.47
2022-12-23T22:25:34.830Z,99363.16
2022-12-23T22:28:37.333Z,99358.84
2022-12-23T22:31:43.324Z,99364.09
2022-12-23T22:34:44.905Z,99348.78
2022-12-23T22:37:46.430Z,99338.22
2022-12-23T22:40:49.430Z,99332.28
2022-12-23T22:43:50.967Z,99336.38
2022-12-23T22:46:52.585Z,99344.25
2022-12-23T22:49:54.190Z,99334.09
2022-12-23T22:52:55.639Z,99332.22
2022-12-23T22:55:58.761Z,99338.94
2022-12-23T22:59:00.228Z,99349.75
2022-12-23T23:02:01.806Z,99348.78
2022-12-23T23:05:06.556Z,99356.38
2022-12-23T23:08:14.492Z,99363.38
2022-12-23T23:11:16.037Z,99373.53
2022-12-23T23:14:18.507Z,99377.59
2022-12-23T23:17:25.151Z,99376.44
2022-12-23T23:20:26.688Z,99388.28
2022-12-23T23:23:28.185Z,99389.03
2022-12-23T23:26:29.721Z,99379.09
2022-12-23T23:29:31.107Z,99388.91
2022-12-23T23:32:32.657Z,99378.22
2022-12-23T23:35:34.364Z,99386.47
2022-12-23T23:38:35.869Z,99395.50
2022-12-23T23:41:37.506Z,99403.16
2022-12-23T23:44:38.954Z,99407.59
2022-12-23T23:47:40.413Z,99421.38
2022-12-23T23:50:42.951Z,99416.13
2022-12-23T23:53:44.470Z,99413.06
2022-12-23T23:56:46.027Z,99413.03
2022-12-23T23:59:47.621Z,99419.44
